Time;durP1;ratioP1;P1;durP2;ratioP2;P2;SDS_P1;SDS_P2;PMS_P1;PMS_P2;Temp;Humidity;BMP_temperature;BMP_pressure;BME280_temperature;BME280_humidity;BME280_pressure;Samples;Min_cycle;Max_cycle;Signal;HPM_P1;HPM_P2
2023/06/25 00:01:57;;;;;;;7.80;6.25;;;;;;;25.25;53.75;99166.81;5033213;28;20056;-77
2023/06/25 00:04:22;;;;;;;8.57;6.57;;;;;;;25.29;53.82;99167.53;5032703;28;20029;-77
2023/06/25 00:06:48;;;;;;;9.60;6.82;;;;;;;25.44;53.36;99179.47;5015349;28;20032;-77
2023/06/25 00:09:13;;;;;;;8.10;6.28;;;;;;;25.42;53.54;99176.25;5015127;28;20037;-77
2023/06/25 00:11:39;;;;;;;8.07;6.43;;;;;;;25.22;54.19;99170.56;5020727;28;20029;-77
2023/06/25 00:14:05;;;;;;;9.80;6.32;;;;;;;25.25;54.17;99172.53;5039851;28;20113;-77
2023/06/25 00:16:30;;;;;;;8.40;5.97;;;;;;;25.30;54.23;99180.59;5032897;28;20032;-77
2023/06/25 00:18:56;;;;;;;9.43;6.93;;;;;;;25.34;54.09;99174.78;5014837;28;20463;-77
2023/06/25 00:21:22;;;;;;;12.18;7.75;;;;;;;25.38;53.73;99181.22;5014922;28;20116;-77
2023/06/25 00:23:47;;;;;;;8.45;6.47;;;;;;;25.35;54.06;99170.69;5048641;28;20035;-77
2023/06/25 00:26:13;;;;;;;11.60;6.68;;;;;;;25.29;54.24;99173.25;5042142;28;20496;-77
2023/06/25 00:28:38;;;;;;;13.48;6.60;;;;;;;25.36;54.20;99178.81;5011679;28;20462;-77
2023/06/25 00:31:05;;;;;;;9.27;7.43;;;;;;;24.93;55.11;99159.75;5031237;28;20025;-77
2023/06/25 00:33:32;;;;;;;9.68;7.43;;;;;;;24.60;56.85;99171.81;5030090;28;20120;-77
2023/06/25 00:35:57;;;;;;;10.25;6.65;;;;;;;24.34;58.48;99185.81;5014758;28;20509;-77
2023/06/25 00:38:23;;;;;;;8.45;6.22;;;;;;;24.23;59.28;99191.69;5032527;28;20132;-77
2023/06/25 00:40:50;;;;;;;9.48;7.03;;;;;;;24.02;60.13;99192.84;5032291;28;20049;-77
2023/06/25 00:43:16;;;;;;;14.65;7.68;;;;;;;24.10;59.83;99185.00;5023234;28;20515;-77
2023/06/25 00:45:45;;;;;;;9.48;6.25;;;;;;;24.11;60.05;99192.31;5030754;28;20034;-77
2023/06/25 00:48:11;;;;;;;10.07;6.40;;;;;;;24.07;60.25;99188.72;5031242;28;20522;-77
2023/06/25 00:50:36;;;;;;;9.93;6.90;;;;;;;23.80;61.17;99161.03;5031668;28;20081;-77
2023/06/25 00:53:02;;;;;;;9.68;6.60;;;;;;;23.87;61.28;99168.66;5013943;28;20064;-77
2023/06/25 00:55:28;;;;;;;11.45;7.28;;;;;;;23.68;61.81;99176.69;5014228;28;20029;-77
2023/06/25 00:57:55;;;;;;;9.55;6.47;;;;;;;23.58;62.22;99175.63;5014259;28;20456;-77
2023/06/25 01:00:24;;;;;;;12.10;7.53;;;;;;;23.25;65.06;99183.81;5032046;28;20022;-77
2023/06/25 01:03:03;;;;;;;10.93;7.78;;;;;;;23.49;64.87;99178.22;5012933;28;20030;-77
2023/06/25 01:05:39;;;;;;;12.90;9.20;;;;;;;23.18;67.68;99169.69;5037262;28;20034;-77
2023/06/25 01:08:08;;;;;;;12.60;8.95;;;;;;;23.44;66.63;99170.16;5013608;28;20108;-77
2023/06/25 01:10:36;;;;;;;14.30;9.77;;;;;;;23.75;66.47;99192.91;5034185;28;20116;-77
2023/06/25 01:13:02;;;;;;;11.20;9.60;;;;;;;23.94;66.70;99182.78;5016506;28;20032;-77
2023/06/25 01:15:27;;;;;;;12.50;10.63;;;;;;;23.87;67.57;99168.66;5017507;28;20534;-77
2023/06/25 01:17:54;;;;;;;13.70;10.00;;;;;;;23.77;68.30;99187.56;5011619;28;20064;-77
2023/06/25 01:20:21;;;;;;;12.50;10.02;;;;;;;23.75;68.73;99187.19;5030970;28;20025;-77
2023/06/25 01:22:47;;;;;;;12.52;9.95;;;;;;;23.55;70.04;99193.63;5020683;28;20025;-77
2023/06/25 01:25:13;;;;;;;15.00;11.35;;;;;;;23.37;71.17;99193.91;5013857;28;20515;-77
2023/06/25 01:27:38;;;;;;;13.57;11.18;;;;;;;23.15;71.83;99185.59;5013344;28;20122;-77
2023/06/25 01:30:09;;;;;;;16.98;11.55;;;;;;;23.23;71.76;99189.16;5030985;28;20033;-77
2023/06/25 01:32:35;;;;;;;13.85;9.77;;;;;;;23.39;71.08;99199.97;5032210;28;20022;-77
2023/06/25 01:35:00;;;;;;;13.85;10.50;;;;;;;23.30;71.42;99191.13;5013791;28;20488;-77
2023/06/25 01:37:28;;;;;;;19.40;12.10;;;;;;;23.32;71.22;99188.66;5030634;28;20025;-77
2023/06/25 01:39:55;;;;;;;14.75;10.80;;;;;;;23.24;71.56;99190.78;5013778;28;20026;-77
2023/06/25 01:42:20;;;;;;;14.70;9.70;;;;;;;23.08;72.26;99195.06;5013113;28;20485;-77
2023/06/25 01:44:46;;;;;;;13.15;10.75;;;;;;;23.22;71.48;99199.75;5030958;28;20047;-77
2023/06/25 01:47:11;;;;;;;13.45;9.57;;;;;;;23.23;71.13;99192.00;5013602;28;20065;-77
2023/06/25 01:49:37;;;;;;;12.75;9.25;;;;;;;23.40;69.92;99199.53;5013464;28;20052;-77
2023/06/25 01:52:03;;;;;;;12.63;9.57;;;;;;;23.47;69.48;99198.63;5038847;28;20479;-77
2023/06/25 01:54:29;;;;;;;17.63;11.18;;;;;;;23.42;69.09;99181.97;5032189;28;20040;-77
2023/06/25 01:56:55;;;;;;;20.00;8.98;;;;;;;23.41;68.77;99189.75;5050711;28;20475;-77
2023/06/25 01:59:20;;;;;;;17.90;9.95;;;;;;;23.54;68.79;99195.66;5032432;28;20389;-78
2023/06/25 02:01:46;;;;;;;11.45;9.68;;;;;;;23.48;68.42;99180.28;5049781;28;20036;-77
2023/06/25 02:04:11;;;;;;;17.58;8.50;;;;;;;23.67;67.29;99201.59;5033169;28;20025;-77
2023/06/25 02:06:37;;;;;;;11.82;8.18;;;;;;;23.41;67.69;99189.75;5051083;28;20020;-77
2023/06/25 02:09:02;;;;;;;12.63;8.32;;;;;;;23.47;67.44;99177.84;5050972;28;20151;-77
2023/06/25 02:11:28;;;;;;;14.38;8.20;;;;;;;23.50;67.57;99189.22;5020342;28;20033;-77
2023/06/25 02:13:53;;;;;;;14.65;8.93;;;;;;;23.31;68.01;99173.59;5021021;28;20057;-77
2023/06/25 02:16:19;;;;;;;10.25;7.50;;;;;;;23.03;69.26;99189.81;5013316;28;20239;-77
2023/06/25 02:18:44;;;;;;;11.68;7.22;;;;;;;23.17;68.56;99199.41;5030839;28;20496;-77
2023/06/25 02:21:10;;;;;;;14.85;7.88;;;;;;;23.01;68.73;99186.59;5030586;28;20039;-77
2023/06/25 02:23:35;;;;;;;14.77;7.75;;;;;;;22.79;69.78;99186.84;5031043;28;20037;-77
2023/06/25 02:26:01;;;;;;;9.43;6.95;;;;;;;22.58;70.38;99188.75;5012423;28;20565;-77
2023/06/25 02:28:27;;;;;;;12.73;7.20;;;;;;;22.61;70.56;99189.13;5030424;28;20021;-77
2023/06/25 02:30:52;;;;;;;15.63;7.00;;;;;;;22.33;71.57;99191.81;5013141;28;20484;-77
2023/06/25 02:33:17;;;;;;;9.68;8.00;;;;;;;22.34;71.30;99178.41;5030493;28;20108;-77
2023/06/25 02:35:43;;;;;;;13.55;8.63;;;;;;;22.21;71.79;99181.78;5030884;28;20412;-77
2023/06/25 02:38:09;;;;;;;13.25;9.07;;;;;;;22.20;71.85;99197.22;5030881;28;20053;-77
2023/06/25 02:40:35;;;;;;;15.55;7.97;;;;;;;21.99;73.08;99190.53;5030764;28;20446;-77
2023/06/25 02:43:01;;;;;;;16.75;7.63;;;;;;;21.90;73.61;99190.19;5037587;28;20029;-77
2023/06/25 02:45:27;;;;;;;11.88;7.65;;;;;;;21.80;73.90;99182.53;5016423;28;20033;-77
2023/06/25 02:47:52;;;;;;;13.20;7.07;;;;;;;21.65;74.65;99188.31;5030709;28;20026;-77
2023/06/25 02:50:17;;;;;;;14.85;7.78;;;;;;;21.60;74.83;99185.94;5012923;28;20463;-77
2023/06/25 02:52:44;;;;;;;13.40;7.78;;;;;;;21.60;75.19;99185.94;5031322;28;20108;-77
2023/06/25 02:55:10;;;;;;;17.77;7.72;;;;;;;21.80;74.24;99191.09;5011637;28;20029;-77
2023/06/25 02:57:35;;;;;;;19.13;8.52;;;;;;;22.06;73.27;99185.97;5033462;28;20029;-77
2023/06/25 03:00:01;;;;;;;20.38;8.80;;;;;;;21.85;73.76;99187.81;5030967;28;20025;-77
2023/06/25 03:02:26;;;;;;;17.88;9.02;;;;;;;22.04;73.19;99188.44;5012770;28;20032;-77
2023/06/25 03:04:52;;;;;;;14.07;8.45;;;;;;;21.80;73.41;99183.38;5014700;28;20705;-77
2023/06/25 03:07:18;;;;;;;14.27;7.82;;;;;;;21.83;73.76;99199.59;5018271;28;20172;-76
2023/06/25 03:09:43;;;;;;;12.10;7.05;;;;;;;22.02;73.35;99203.09;5031709;28;20408;-77
2023/06/25 03:12:10;;;;;;;10.00;6.97;;;;;;;21.82;73.41;99185.78;5016289;28;20103;-76
2023/06/25 03:14:39;;;;;;;11.57;6.00;;;;;;;21.98;73.28;99199.47;5034115;28;20033;-77
2023/06/25 03:17:05;;;;;;;10.10;6.05;;;;;;;21.89;73.11;99197.13;5015497;28;20115;-76
2023/06/25 03:19:30;;;;;;;17.42;7.18;;;;;;;21.81;73.58;99198.38;5016113;28;20109;-77
2023/06/25 03:21:56;;;;;;;12.35;6.50;;;;;;;21.73;73.76;99189.09;5043814;28;20040;-77
2023/06/25 03:24:21;;;;;;;8.25;5.22;;;;;;;21.85;73.61;99196.34;5053859;28;20407;-77
2023/06/25 03:26:47;;;;;;;9.88;5.22;;;;;;;21.80;74.20;99199.63;5035359;28;20044;-76
2023/06/25 03:29:12;;;;;;;5.78;4.75;;;;;;;22.01;73.64;99192.94;5015963;28;20032;-77
2023/06/25 03:31:38;;;;;;;7.82;4.53;;;;;;;22.07;73.19;99185.56;5038058;28;20030;-77
2023/06/25 03:34:03;;;;;;;10.43;5.20;;;;;;;22.10;73.29;99190.41;5031705;28;20033;-77
2023/06/25 03:36:29;;;;;;;10.35;4.53;;;;;;;21.87;73.97;99183.28;5047976;28;20116;-77
2023/06/25 03:38:55;;;;;;;7.45;4.97;;;;;;;21.98;74.15;99191.75;5035465;28;20488;-77
2023/06/25 03:41:20;;;;;;;9.30;4.88;;;;;;;22.09;73.75;99194.50;5053224;28;20466;-77
2023/06/25 03:43:46;;;;;;;8.90;5.47;;;;;;;22.09;73.81;99193.69;5034449;28;20033;-77
2023/06/25 03:46:11;;;;;;;8.50;5.07;;;;;;;22.19;73.58;99192.75;5033537;28;20044;-77
2023/06/25 03:48:37;;;;;;;12.35;5.25;;;;;;;22.30;73.37;99193.47;5043013;28;20032;-77
2023/06/25 03:51:02;;;;;;;7.30;3.90;;;;;;;22.36;72.50;99173.09;5029436;28;20514;-77
2023/06/25 03:53:29;;;;;;;6.75;5.10;;;;;;;22.55;72.44;99203.81;5017175;28;20028;-77
2023/06/25 03:55:54;;;;;;;16.20;4.82;;;;;;;22.56;72.21;99198.94;5022596;28;20044;-78
2023/06/25 03:58:20;;;;;;;10.68;5.05;;;;;;;22.50;72.51;99198.59;5015564;28;20504;-78
2023/06/25 04:00:45;;;;;;;7.50;5.03;;;;;;;22.39;72.87;99193.00;5015509;28;20029;-78
2023/06/25 04:03:11;;;;;;;8.40;4.75;;;;;;;22.56;72.27;99199.78;5017396;28;20174;-78
2023/06/25 04:05:36;;;;;;;11.85;5.00;;;;;;;22.45;73.10;99196.19;5035277;28;20033;-76
2023/06/25 04:08:02;;;;;;;7.07;4.25;;;;;;;22.56;72.27;99196.09;5035069;28;20036;-75
2023/06/25 04:10:28;;;;;;;6.65;4.05;;;;;;;22.40;72.95;99190.94;5042401;28;20120;-79
2023/06/25 04:12:54;;;;;;;13.40;4.35;;;;;;;22.39;72.55;99186.47;5019117;28;20094;-78
2023/06/25 04:15:19;;;;;;;5.68;3.80;;;;;;;22.41;73.09;99193.38;5035317;28;20108;-78
2023/06/25 04:17:46;;;;;;;6.35;4.25;;;;;;;22.43;73.56;99195.78;5032507;28;20102;-78
2023/06/25 04:20:12;;;;;;;7.53;4.75;;;;;;;22.44;72.69;99180.31;5014651;28;20045;-79
2023/06/25 04:22:38;;;;;;;6.00;4.25;;;;;;;22.64;72.41;99193.97;5032882;28;20104;-78
2023/06/25 04:25:03;;;;;;;7.25;4.57;;;;;;;22.62;72.27;99188.69;5014963;28;20037;-79
2023/06/25 04:27:29;;;;;;;8.32;4.45;;;;;;;22.71;72.43;99193.91;5014830;28;20116;-78
2023/06/25 04:29:54;;;;;;;5.68;3.90;;;;;;;22.82;72.40;99197.44;5014910;28;20477;-78
2023/06/25 04:32:20;;;;;;;11.93;4.68;;;;;;;22.72;71.57;99178.41;5014609;28;20045;-78
2023/06/25 04:34:45;;;;;;;6.97;4.35;;;;;;;22.76;71.73;99186.94;5019614;28;20056;-78
2023/06/25 04:37:10;;;;;;;7.75;4.63;;;;;;;22.89;71.27;99182.28;5034575;28;20036;-78
2023/06/25 04:39:38;;;;;;;8.38;3.95;;;;;;;23.03;70.51;99191.88;5034460;28;20480;-78
2023/06/25 04:42:04;;;;;;;8.73;4.57;;;;;;;23.08;69.79;99194.25;5034535;28;20397;-78
2023/06/25 04:44:29;;;;;;;7.00;4.15;;;;;;;23.31;69.36;99207.00;5034377;28;20024;-78
2023/06/25 04:46:54;;;;;;;6.43;4.80;;;;;;;23.52;68.57;99189.59;5034379;28;20025;-79
2023/06/25 04:49:20;;;;;;;6.38;4.70;;;;;;;23.71;67.88;99207.22;5031559;28;20033;-78
2023/06/25 04:51:46;;;;;;;7.63;4.38;;;;;;;23.86;67.70;99199.25;5014438;28;20037;-78
2023/06/25 04:54:12;;;;;;;24.48;14.30;;;;;;;24.03;66.91;99207.97;5014299;28;20035;-79
2023/06/25 04:56:37;;;;;;;21.15;11.90;;;;;;;23.82;67.07;99192.78;5023904;28;20086;-79
2023/06/25 04:59:03;;;;;;;7.70;4.32;;;;;;;23.98;66.21;99200.69;5034129;28;20067;-78
2023/06/25 05:01:28;;;;;;;14.80;6.57;;;;;;;23.94;66.95;99203.59;5034119;28;20029;-78
2023/06/25 05:03:54;;;;;;;16.02;5.15;;;;;;;23.84;66.02;99208.25;5033947;28;20032;-77
2023/06/25 05:06:19;;;;;;;16.42;7.60;;;;;;;24.08;66.76;99202.59;5015044;28;20029;-78
2023/06/25 05:08:45;;;;;;;18.65;9.65;;;;;;;24.14;65.45;99196.38;5013622;28;20025;-78
2023/06/25 05:11:10;;;;;;;52.25;28.23;;;;;;;24.22;64.50;99192.94;5031841;28;20068;-78
2023/06/25 05:13:36;;;;;;;12.68;7.78;;;;;;;24.37;64.25;99190.63;5031791;28;20087;-78
2023/06/25 05:16:03;;;;;;;20.63;9.98;;;;;;;24.41;64.42;99190.56;5014143;28;20022;-78
2023/06/25 05:18:28;;;;;;;22.98;10.98;;;;;;;24.38;64.89;99185.75;5031536;28;20042;-78
2023/06/25 05:20:54;;;;;;;14.98;7.97;;;;;;;24.53;64.76;99198.50;5030988;28;20041;-77
2023/06/25 05:23:20;;;;;;;23.60;12.43;;;;;;;24.47;64.61;99185.94;5032044;28;20028;-77
2023/06/25 05:25:45;;;;;;;11.20;6.47;;;;;;;24.53;63.99;99206.25;5014253;28;20021;-78
2023/06/25 05:28:11;;;;;;;8.43;5.18;;;;;;;24.62;63.14;99200.00;5031136;28;20562;-78
2023/06/25 05:30:36;;;;;;;9.45;5.28;;;;;;;24.76;63.33;99210.31;5031454;28;20101;-77
2023/06/25 05:33:02;;;;;;;10.30;5.35;;;;;;;24.89;62.95;99219.09;5013305;28;20036;-76
2023/06/25 05:35:30;;;;;;;6.45;4.50;;;;;;;24.82;62.61;99217.19;5013695;28;20021;-78
2023/06/25 05:37:56;;;;;;;8.98;5.53;;;;;;;25.11;62.10;99213.72;5013006;28;20021;-75
2023/06/25 05:40:26;;;;;;;8.07;5.35;;;;;;;25.21;61.78;99214.72;5030002;28;20100;-77
2023/06/25 05:42:51;;;;;;;;;;;;;;;25.22;61.57;99222.09;5033729;28;20025;-77
2023/06/25 05:45:17;;;;;;;8.88;5.82;;;;;;;25.13;61.55;99219.78;5013688;28;20451;-79
2023/06/25 05:47:43;;;;;;;9.77;6.03;;;;;;;25.09;62.04;99214.13;5026165;28;20029;-79
2023/06/25 05:50:09;;;;;;;12.32;6.93;;;;;;;25.21;61.44;99214.72;5028793;28;20440;-79
2023/06/25 05:52:34;;;;;;;11.88;6.05;;;;;;;25.45;61.75;99220.31;5011033;28;20063;-80
2023/06/25 05:55:00;;;;;;;12.40;6.72;;;;;;;25.40;61.07;99218.00;5010184;28;20435;-78
2023/06/25 05:57:26;;;;;;;11.85;6.43;;;;;;;25.55;60.92;99221.38;5011196;28;20202;-78
2023/06/25 05:59:52;;;;;;;17.42;7.32;;;;;;;25.61;61.88;99226.13;5010450;28;20090;-77
2023/06/25 06:02:18;;;;;;;15.30;6.57;;;;;;;25.83;60.67;99219.91;5030187;28;20033;-80
2023/06/25 06:04:43;;;;;;;11.20;6.90;;;;;;;25.81;61.01;99233.03;5048583;28;20400;-80
2023/06/25 06:07:09;;;;;;;16.67;6.47;;;;;;;26.18;59.96;99208.78;5017001;28;20032;-81
2023/06/25 06:09:34;;;;;;;10.85;6.60;;;;;;;26.34;59.65;99215.78;5012490;28;22716;-84
2023/06/25 06:11:59;;;;;;;8.38;5.95;;;;;;;26.18;60.60;99214.53;5012717;28;20034;-83
2023/06/25 06:14:25;;;;;;;18.33;6.53;;;;;;;26.19;60.06;99210.44;5012259;28;20034;-82
2023/06/25 06:16:50;;;;;;;13.15;6.60;;;;;;;26.33;59.33;99214.97;5012146;28;20033;-78
2023/06/25 06:19:16;;;;;;;8.45;6.55;;;;;;;26.03;59.58;99213.25;5030681;28;20069;-82
2023/06/25 06:21:42;;;;;;;20.23;6.68;;;;;;;26.37;59.13;99209.16;5047482;28;20100;-79
2023/06/25 06:24:07;;;;;;;10.68;6.25;;;;;;;26.40;59.64;99213.97;5030286;28;20056;-76
2023/06/25 06:26:35;;;;;;;10.88;6.82;;;;;;;26.40;59.26;99213.19;5048485;28;20025;-78
2023/06/25 06:29:03;;;;;;;14.07;6.45;;;;;;;26.59;59.13;99208.56;5048118;28;20024;-79
2023/06/25 06:31:32;;;;;;;11.25;7.20;;;;;;;26.93;58.16;99215.84;5010940;28;20069;-77
2023/06/25 06:33:58;;;;;;;14.25;7.40;;;;;;;27.17;56.83;99222.09;5010431;28;20040;-78
2023/06/25 06:36:23;;;;;;;11.63;6.85;;;;;;;27.39;56.90;99220.63;5010525;28;20045;-76
2023/06/25 06:38:49;;;;;;;10.13;6.57;;;;;;;27.63;55.47;99217.44;5010478;28;20500;-78
2023/06/25 06:41:15;;;;;;;16.55;8.00;;;;;;;27.60;55.54;99210.56;5027461;28;20009;-78
2023/06/25 06:43:40;;;;;;;10.95;6.68;;;;;;;28.04;53.87;99215.72;5024857;28;20048;-81
2023/06/25 06:46:06;;;;;;;9.63;6.05;;;;;;;28.12;53.85;99224.88;5033579;28;20033;-81
2023/06/25 06:48:31;;;;;;;11.43;6.38;;;;;;;27.86;54.77;99204.81;5014226;28;20459;-82
2023/06/25 06:50:57;;;;;;;15.32;5.95;;;;;;;28.17;53.89;99207.03;5013610;28;20163;-83
2023/06/25 06:53:22;;;;;;;14.90;7.03;;;;;;;28.23;53.68;99210.97;5031799;28;20040;-82
2023/06/25 06:55:48;;;;;;;12.77;6.95;;;;;;;27.89;53.90;99207.56;5013253;28;20022;-80
2023/06/25 06:58:13;;;;;;;8.43;5.55;;;;;;;28.05;52.67;99193.50;5022842;28;20028;-81
2023/06/25 07:00:39;;;;;;;9.05;6.50;;;;;;;28.15;53.44;99193.16;5016121;28;20031;-80
2023/06/25 07:03:04;;;;;;;12.27;6.95;;;;;;;28.21;52.62;99181.09;5024364;28;20063;-79
2023/06/25 07:05:30;;;;;;;23.38;15.55;;;;;;;28.23;53.04;99192.91;5033767;28;20033;-80
2023/06/25 07:07:56;;;;;;;10.32;7.85;;;;;;;28.38;52.95;99178.84;5018151;28;20746;-79
2023/06/25 07:10:21;;;;;;;12.70;6.60;;;;;;;28.54;53.48;99183.63;5049771;28;20499;-81
2023/06/25 07:12:47;;;;;;;11.63;6.30;;;;;;;28.21;52.74;99172.47;5016779;28;20128;-78
2023/06/25 07:15:12;;;;;;;11.27;5.88;;;;;;;28.23;52.71;99175.66;5013823;28;20389;-79
2023/06/25 07:17:39;;;;;;;16.63;6.28;;;;;;;28.65;52.27;99166.78;5013530;28;20110;-77
2023/06/25 07:20:06;;;;;;;12.02;6.68;;;;;;;29.10;50.94;99161.81;5030612;28;20060;-78
2023/06/25 07:22:33;;;;;;;7.68;5.30;;;;;;;29.18;50.12;99156.56;5042222;28;20029;-77
2023/06/25 07:24:59;;;;;;;11.77;6.07;;;;;;;29.39;50.20;99151.25;5032064;28;20499;-78
2023/06/25 07:27:24;;;;;;;14.13;5.85;;;;;;;29.67;48.17;99148.50;5020222;28;20048;-76
2023/06/25 07:29:50;;;;;;;8.73;5.80;;;;;;;28.98;48.21;99154.88;5030927;28;20033;-76
2023/06/25 07:32:15;;;;;;;66.82;8.93;;;;;;;28.78;49.34;99152.34;5043200;28;20037;-76
2023/06/25 07:34:41;;;;;;;10.27;5.72;;;;;;;29.46;48.48;99148.13;5020964;28;20040;-78
2023/06/25 07:37:07;;;;;;;15.93;6.30;;;;;;;29.38;48.76;99141.00;5013273;28;20045;-78
2023/06/25 07:39:33;;;;;;;11.40;5.57;;;;;;;29.77;47.69;99147.25;5013203;28;20511;-79
2023/06/25 07:41:59;;;;;;;11.20;7.22;;;;;;;29.63;48.47;99140.03;5013174;28;20029;-75
2023/06/25 07:44:25;;;;;;;9.95;6.22;;;;;;;29.77;48.07;99141.47;5025413;28;20034;-75
2023/06/25 07:46:50;;;;;;;12.60;6.40;;;;;;;29.92;47.16;99132.22;5032899;28;20144;-77
2023/06/25 07:49:16;;;;;;;8.68;6.05;;;;;;;30.17;46.91;99136.94;5040110;28;20048;-78
2023/06/25 07:51:49;;;;;;;11.98;5.90;;;;;;;29.91;47.35;99130.63;5013524;28;20120;-83
2023/06/25 07:54:15;;;;;;;6.35;4.97;;;;;;;30.19;46.14;99124.94;5030759;28;20040;-75
2023/06/25 07:56:44;;;;;;;10.30;6.07;;;;;;;30.44;46.54;99132.44;5044168;28;20041;-80
2023/06/25 07:59:12;;;;;;;10.90;6.68;;;;;;;30.53;45.27;99131.66;5017883;28;20032;-78
2023/06/25 08:01:37;;;;;;;6.68;4.88;;;;;;;30.53;46.00;99123.00;5013409;28;20041;-79
2023/06/25 08:04:03;;;;;;;8.48;5.40;;;;;;;30.80;45.06;99118.50;5047624;28;20075;-77
2023/06/25 08:06:28;;;;;;;8.90;6.78;;;;;;;29.98;45.14;99113.03;5021468;28;20021;-76
2023/06/25 08:08:55;;;;;;;10.25;7.20;;;;;;;30.52;44.93;99115.59;5045573;28;20045;-80
2023/06/25 08:11:21;;;;;;;10.65;6.43;;;;;;;30.22;44.72;99101.69;5048985;28;20082;-78
2023/06/25 08:13:46;;;;;;;13.90;6.53;;;;;;;29.69;46.90;99106.41;5032459;28;20040;-80
2023/06/25 08:16:12;;;;;;;8.07;6.18;;;;;;;30.46;46.01;99106.81;5019176;28;20120;-79
2023/06/25 08:18:37;;;;;;;7.43;5.45;;;;;;;30.39;46.10;99086.94;5028319;28;20427;-78
2023/06/25 08:21:03;;;;;;;7.72;6.10;;;;;;;30.49;44.74;99088.56;5024946;28;20052;-79
2023/06/25 08:23:28;;;;;;;9.57;6.35;;;;;;;30.53;44.00;99080.53;5017597;28;20041;-79
2023/06/25 08:25:55;;;;;;;9.60;6.22;;;;;;;31.00;43.71;99086.22;5012327;28;20026;-79
2023/06/25 08:28:20;;;;;;;8.68;6.60;;;;;;;31.35;42.42;99084.97;5025911;28;20511;-80
2023/06/25 08:30:46;;;;;;;11.82;6.75;;;;;;;31.44;42.77;99082.03;5023651;28;20051;-78
2023/06/25 08:33:11;;;;;;;11.27;6.07;;;;;;;31.33;42.29;99082.59;5029691;28;20029;-82
2023/06/25 08:35:37;;;;;;;10.48;6.15;;;;;;;31.32;42.80;99078.09;5044689;28;20063;-79
2023/06/25 08:38:02;;;;;;;8.63;6.47;;;;;;;31.12;42.99;99087.28;5045969;28;20412;-77
2023/06/25 08:40:30;;;;;;;12.10;6.40;;;;;;;31.39;42.56;99085.59;5040383;28;20064;-76
2023/06/25 08:42:56;;;;;;;8.25;5.97;;;;;;;31.04;42.81;99083.16;5031798;28;20056;-78
2023/06/25 08:45:21;;;;;;;8.27;6.25;;;;;;;31.47;42.17;99078.16;5044597;28;20064;-79
2023/06/25 08:47:53;;;;;;;12.50;6.63;;;;;;;31.36;41.23;99080.78;5011675;28;20415;-77
2023/06/25 08:50:19;;;;;;;10.43;6.85;;;;;;;31.37;41.38;99076.59;5033068;28;20041;-77
2023/06/25 08:52:45;;;;;;;8.02;5.80;;;;;;;31.59;41.13;99066.84;5029430;28;20025;-75
2023/06/25 08:55:12;;;;;;;11.45;6.35;;;;;;;31.86;40.67;99080.38;5015056;28;20036;-79
2023/06/25 08:57:38;;;;;;;7.82;6.03;;;;;;;32.15;39.71;99083.84;5026914;28;20035;-80
2023/06/25 09:00:06;;;;;;;6.15;5.53;;;;;;;32.13;40.10;99069.88;5046987;28;20112;-81
2023/06/25 09:02:31;;;;;;;11.73;6.38;;;;;;;32.13;39.68;99063.31;5048828;28;20047;-76
2023/06/25 09:05:10;;;;;;;7.93;5.13;;;;;;;32.34;40.98;99067.94;5038501;28;20496;-78
2023/06/25 09:07:43;;;;;;;9.07;6.32;;;;;;;32.35;39.46;99063.78;5008316;28;20519;-77
2023/06/25 09:10:09;;;;;;;6.85;5.22;;;;;;;32.30;39.38;99063.63;5010717;28;20029;-77
2023/06/25 09:12:35;;;;;;;8.85;5.88;;;;;;;32.56;38.23;99065.97;5012482;28;20037;-78
2023/06/25 09:15:01;;;;;;;9.27;6.35;;;;;;;32.79;37.30;99058.47;5020236;28;20090;-78
2023/06/25 09:17:28;;;;;;;7.15;5.72;;;;;;;32.84;37.08;99057.81;5034378;28;20524;-77
2023/06/25 09:19:53;;;;;;;13.38;6.00;;;;;;;32.83;36.80;99055.41;5027109;28;20091;-78
2023/06/25 09:22:19;;;;;;;11.30;6.45;;;;;;;32.87;36.92;99056.78;5047933;28;20530;-81
2023/06/25 09:24:50;;;;;;;7.60;5.60;;;;;;;32.87;36.17;99053.09;5015819;28;20037;-78
2023/06/25 09:27:19;;;;;;;10.15;6.85;;;;;;;33.08;36.90;99047.41;5011265;28;20037;-80
2023/06/25 09:29:45;;;;;;;9.60;6.43;;;;;;;33.26;34.93;99047.19;5010001;28;20765;-77
2023/06/25 09:32:11;;;;;;;7.55;5.30;;;;;;;33.66;35.63;99044.84;5024736;28;20059;-75
2023/06/25 09:34:40;;;;;;;10.20;5.43;;;;;;;33.71;36.16;99035.44;5029019;28;20555;-77
2023/06/25 09:37:06;;;;;;;10.30;6.20;;;;;;;34.01;36.53;99041.09;5028872;28;20029;-76
2023/06/25 09:39:31;;;;;;;8.07;6.97;;;;;;;34.06;35.77;99033.78;5012154;28;20037;-77
2023/06/25 09:42:00;;;;;;;12.77;7.55;;;;;;;34.18;34.12;99031.81;5010546;28;20044;-78
2023/06/25 09:44:30;;;;;;;10.57;6.78;;;;;;;34.21;34.21;99038.66;5011222;28;20056;-78
2023/06/25 09:47:03;;;;;;;11.68;6.43;;;;;;;34.41;32.40;99032.03;5010929;28;20144;-78
2023/06/25 09:49:31;;;;;;;9.70;6.43;;;;;;;34.28;32.17;99030.34;5010977;28;20061;-78
2023/06/25 09:52:04;;;;;;;9.93;6.20;;;;;;;34.60;33.22;99020.09;5028557;28;20037;-75
2023/06/25 09:54:31;;;;;;;8.30;6.10;;;;;;;33.33;32.53;99014.88;5012651;28;20037;-76
2023/06/25 09:57:00;;;;;;;9.57;5.63;;;;;;;32.42;35.21;99009.69;5009488;28;20496;-76
2023/06/25 09:59:26;;;;;;;10.02;6.15;;;;;;;33.16;33.62;99008.03;5030015;28;20073;-77
2023/06/25 10:01:52;;;;;;;8.48;6.32;;;;;;;33.24;34.46;99000.50;5011055;28;20120;-75
2023/06/25 10:04:19;;;;;;;7.85;6.20;;;;;;;33.04;34.90;98992.56;5010530;28;20861;-76
2023/06/25 10:06:46;;;;;;;7.45;6.22;;;;;;;32.42;34.70;98993.16;5009219;28;20033;-79
2023/06/25 10:09:12;;;;;;;10.88;5.63;;;;;;;33.06;32.93;98984.19;5010733;28;20175;-78
2023/06/25 10:11:51;;;;;;;7.43;6.00;;;;;;;33.25;32.29;98970.25;5044600;28;20141;-80
2023/06/25 10:14:17;;;;;;;9.10;6.60;;;;;;;33.14;32.29;98982.47;5026148;28;20040;-80
2023/06/25 10:16:54;;;;;;;7.18;5.15;;;;;;;33.21;32.07;98966.75;5019701;28;20033;-81
2023/06/25 10:19:21;;;;;;;8.38;6.05;;;;;;;33.48;32.68;98982.16;5011756;28;20164;-81
2023/06/25 10:21:58;;;;;;;7.55;5.95;;;;;;;33.69;33.09;98979.25;5014795;28;20030;-80
2023/06/25 10:24:23;;;;;;;7.22;6.53;;;;;;;33.65;33.30;98973.69;5013890;28;20026;-81
2023/06/25 10:26:53;;;;;;;6.75;5.53;;;;;;;33.59;32.66;98964.91;5025893;28;20420;-81
2023/06/25 10:29:19;;;;;;;10.85;5.88;;;;;;;33.88;33.63;98959.44;5033968;28;20033;-81
2023/06/25 10:31:45;;;;;;;6.82;6.03;;;;;;;33.65;33.65;98956.28;5033526;28;20033;-81
2023/06/25 10:34:13;;;;;;;9.32;5.82;;;;;;;33.48;33.29;98938.69;5034784;28;20416;-81
2023/06/25 10:36:49;;;;;;;8.38;6.07;;;;;;;33.93;33.65;98941.34;5029340;28;20045;-81
2023/06/25 10:39:15;;;;;;;8.45;5.72;;;;;;;33.60;33.32;98949.13;5013621;28;20413;-81
2023/06/25 10:41:46;;;;;;;8.20;5.35;;;;;;;33.44;32.67;98946.78;5012618;28;20041;-82
2023/06/25 10:44:12;;;;;;;7.30;5.85;;;;;;;33.52;33.03;98939.28;5013513;28;20033;-82
2023/06/25 10:46:37;;;;;;;6.80;6.10;;;;;;;33.78;33.88;98935.63;5013631;28;20396;-82
2023/06/25 10:49:03;;;;;;;7.22;5.60;;;;;;;34.36;34.13;98928.31;5013003;28;20111;-81
2023/06/25 10:51:29;;;;;;;8.43;5.93;;;;;;;34.22;31.91;98933.72;5018413;28;20049;-82
2023/06/25 10:53:55;;;;;;;6.38;5.78;;;;;;;34.36;31.34;98942.81;5033283;28;20029;-82
2023/06/25 10:56:24;;;;;;;9.13;5.50;;;;;;;34.15;32.58;98934.16;5017432;28;20092;-83
2023/06/25 10:58:57;;;;;;;6.63;5.63;;;;;;;34.29;31.89;98941.97;5013711;28;20029;-83
2023/06/25 11:01:23;;;;;;;8.95;5.65;;;;;;;33.98;31.87;98948.50;5018776;28;20033;-82
2023/06/25 11:03:48;;;;;;;6.53;5.50;;;;;;;33.53;34.23;98951.66;5013250;28;20508;-82
2023/06/25 11:06:14;;;;;;;7.18;4.80;;;;;;;33.50;34.93;98943.97;5019485;28;20029;-82
2023/06/25 11:08:41;;;;;;;11.65;5.00;;;;;;;33.00;35.19;98948.56;5034120;28;20488;-82
2023/06/25 11:11:07;;;;;;;8.82;5.25;;;;;;;31.65;37.61;98944.31;5028282;28;20021;-81
2023/06/25 11:13:32;;;;;;;7.50;5.30;;;;;;;31.34;38.39;98945.53;5024335;28;20415;-81
2023/06/25 11:15:58;;;;;;;13.68;4.82;;;;;;;31.95;37.21;98943.59;5019909;28;20105;-82
2023/06/25 11:18:23;;;;;;;8.02;5.15;;;;;;;31.85;38.33;98933.41;5023068;28;20099;-82
2023/06/25 11:20:49;;;;;;;7.32;5.40;;;;;;;31.23;38.90;98922.19;5019782;28;20029;-81
2023/06/25 11:23:15;;;;;;;6.55;5.03;;;;;;;31.04;38.94;98935.91;5013847;28;20029;-81
2023/06/25 11:25:41;;;;;;;11.60;4.88;;;;;;;30.91;38.46;98939.84;5023756;28;20099;-82